sensor_id;sensor_type;location;lat;lon;timestamp;temperature;humidity
758;DHT22;363;48.764;9.172;2022-12-18T00:01:06;-5.50;99.90
758;DHT22;363;48.764;9.172;2022-12-18T00:03:38;-5.60;99.90
758;DHT22;363;48.764;9.172;2022-12-18T00:06:04;-5.50;99.90
758;DHT22;363;48.764;9.172;2022-12-18T00:08:30;-5.70;99.90
758;DHT22;363;48.764;9.172;2022-12-18T00:10:55;-5.70;99.90
758;DHT22;363;48.764;9.172;2022-12-18T00:13:28;-5.70;99.90
758;DHT22;363;48.764;9.172;2022-12-18T00:15:53;-5.90;99.90
758;DHT22;363;48.764;9.172;2022-12-18T00:18:19;-5.70;99.90
758;DHT22;363;48.764;9.172;2022-12-18T00:20:44;-5.60;99.90
758;DHT22;363;48.764;9.172;2022-12-18T00:23:10;-5.50;99.90
758;DHT22;363;48.764;9.172;2022-12-18T00:25:36;-5.80;99.90
758;DHT22;363;48.764;9.172;2022-12-18T00:28:03;-5.70;99.90
758;DHT22;363;48.764;9.172;2022-12-18T00:30:29;-5.90;99.90
758;DHT22;363;48.764;9.172;2022-12-18T00:32:55;-5.80;99.90
758;DHT22;363;48.764;9.172;2022-12-18T00:35:21;-5.70;99.90
758;DHT22;363;48.764;9.172;2022-12-18T00:37:46;-5.80;99.90
758;DHT22;363;48.764;9.172;2022-12-18T00:40:12;-5.60;99.90
758;DHT22;363;48.764;9.172;2022-12-18T00:42:38;-5.60;99.90
758;DHT22;363;48.764;9.172;2022-12-18T00:45:23;-5.30;99.90
758;DHT22;363;48.764;9.172;2022-12-18T00:47:49;-5.60;99.90
758;DHT22;363;48.764;9.172;2022-12-18T00:50:15;-5.90;99.90
758;DHT22;363;48.764;9.172;2022-12-18T00:52:41;-5.70;99.90
758;DHT22;363;48.764;9.172;2022-12-18T00:55:07;-5.50;99.90
758;DHT22;363;48.764;9.172;2022-12-18T00:57:33;-5.50;99.90
758;DHT22;363;48.764;9.172;2022-12-18T00:59:58;-6.10;99.90
758;DHT22;363;48.764;9.172;2022-12-18T01:02:24;-5.10;99.90
758;DHT22;363;48.764;9.172;2022-12-18T01:04:50;-5.50;99.90
758;DHT22;363;48.764;9.172;2022-12-18T01:07:15;-6.30;99.90
758;DHT22;363;48.764;9.172;2022-12-18T01:09:41;-5.50;99.90
758;DHT22;363;48.764;9.172;2022-12-18T01:12:07;-5.40;99.90
758;DHT22;363;48.764;9.172;2022-12-18T01:14:32;-5.60;99.90
758;DHT22;363;48.764;9.172;2022-12-18T01:16:58;-5.60;99.90
758;DHT22;363;48.764;9.172;2022-12-18T01:19:23;-5.60;99.90
758;DHT22;363;48.764;9.172;2022-12-18T01:21:49;-5.50;99.90
758;DHT22;363;48.764;9.172;2022-12-18T01:24:15;-5.80;99.90
758;DHT22;363;48.764;9.172;2022-12-18T01:26:41;-5.70;99.90
758;DHT22;363;48.764;9.172;2022-12-18T01:29:06;-5.50;99.90
758;DHT22;363;48.764;9.172;2022-12-18T01:31:33;-5.80;99.90
758;DHT22;363;48.764;9.172;2022-12-18T01:34:03;-5.60;99.90
758;DHT22;363;48.764;9.172;2022-12-18T01:36:31;-5.40;99.90
758;DHT22;363;48.764;9.172;2022-12-18T01:39:00;-5.50;99.90
758;DHT22;363;48.764;9.172;2022-12-18T01:41:28;-5.60;99.90
758;DHT22;363;48.764;9.172;2022-12-18T01:44:50;-6.20;99.90
758;DHT22;363;48.764;9.172;2022-12-18T01:47:21;-5.50;99.90
758;DHT22;363;48.764;9.172;2022-12-18T01:49:48;-5.40;99.90
758;DHT22;363;48.764;9.172;2022-12-18T01:52:15;-5.40;99.90
758;DHT22;363;48.764;9.172;2022-12-18T01:54:41;-5.40;99.90
758;DHT22;363;48.764;9.172;2022-12-18T01:57:07;-5.50;99.90
758;DHT22;363;48.764;9.172;2022-12-18T01:59:33;-5.30;99.90
758;DHT22;363;48.764;9.172;2022-12-18T02:02:01;-6.20;99.90
758;DHT22;363;48.764;9.172;2022-12-18T02:04:27;-5.70;99.90
758;DHT22;363;48.764;9.172;2022-12-18T02:07:06;-5.60;99.90
758;DHT22;363;48.764;9.172;2022-12-18T02:09:44;-5.60;99.90
758;DHT22;363;48.764;9.172;2022-12-18T02:12:21;-5.60;99.90
758;DHT22;363;48.764;9.172;2022-12-18T02:15:05;-5.40;99.90
758;DHT22;363;48.764;9.172;2022-12-18T02:17:43;-5.30;99.90
758;DHT22;363;48.764;9.172;2022-12-18T02:20:28;-5.10;99.90
758;DHT22;363;48.764;9.172;2022-12-18T02:28:20;-5.10;99.90
758;DHT22;363;48.764;9.172;2022-12-18T02:30:49;-5.10;99.90
758;DHT22;363;48.764;9.172;2022-12-18T02:33:16;-5.20;99.90
758;DHT22;363;48.764;9.172;2022-12-18T02:35:44;-5.00;99.90
758;DHT22;363;48.764;9.172;2022-12-18T02:38:12;-5.10;99.90
758;DHT22;363;48.764;9.172;2022-12-18T02:40:38;-5.70;99.90
758;DHT22;363;48.764;9.172;2022-12-18T02:43:13;-5.10;99.90
758;DHT22;363;48.764;9.172;2022-12-18T02:45:50;-5.30;99.90
758;DHT22;363;48.764;9.172;2022-12-18T02:48:18;-5.30;99.90
758;DHT22;363;48.764;9.172;2022-12-18T02:50:52;-5.70;99.90
758;DHT22;363;48.764;9.172;2022-12-18T02:53:33;-5.80;99.90
758;DHT22;363;48.764;9.172;2022-12-18T02:56:07;-5.20;99.90
758;DHT22;363;48.764;9.172;2022-12-18T03:01:39;-5.30;99.90
758;DHT22;363;48.764;9.172;2022-12-18T03:04:16;-5.40;99.90
758;DHT22;363;48.764;9.172;2022-12-18T03:06:54;-5.20;99.90
758;DHT22;363;48.764;9.172;2022-12-18T03:09:24;-5.50;99.90
758;DHT22;363;48.764;9.172;2022-12-18T03:11:58;-5.50;99.90
758;DHT22;363;48.764;9.172;2022-12-18T03:14:50;-5.60;99.90
758;DHT22;363;48.764;9.172;2022-12-18T03:17:20;-5.10;99.90
758;DHT22;363;48.764;9.172;2022-12-18T03:19:49;-5.30;99.90
758;DHT22;363;48.764;9.172;2022-12-18T03:22:17;-5.50;99.90
758;DHT22;363;48.764;9.172;2022-12-18T03:24:42;-5.20;99.90
758;DHT22;363;48.764;9.172;2022-12-18T03:27:12;-5.20;99.90
758;DHT22;363;48.764;9.172;2022-12-18T03:29:46;-5.70;99.90
758;DHT22;363;48.764;9.172;2022-12-18T03:32:25;-5.20;99.90
758;DHT22;363;48.764;9.172;2022-12-18T03:34:54;-5.30;99.90
758;DHT22;363;48.764;9.172;2022-12-18T03:37:22;-5.20;99.90
758;DHT22;363;48.764;9.172;2022-12-18T03:39:48;-5.80;99.90
758;DHT22;363;48.764;9.172;2022-12-18T03:42:23;-5.90;99.90
758;DHT22;363;48.764;9.172;2022-12-18T03:48:30;-5.00;99.90
758;DHT22;363;48.764;9.172;2022-12-18T03:51:02;-5.10;99.90
758;DHT22;363;48.764;9.172;2022-12-18T03:53:44;-5.00;99.90
758;DHT22;363;48.764;9.172;2022-12-18T03:56:14;-5.00;99.90
758;DHT22;363;48.764;9.172;2022-12-18T03:58:41;-5.10;99.90
758;DHT22;363;48.764;9.172;2022-12-18T04:01:12;-5.00;99.90
758;DHT22;363;48.764;9.172;2022-12-18T04:03:39;-5.70;99.90
758;DHT22;363;48.764;9.172;2022-12-18T04:06:06;-6.20;99.90
758;DHT22;363;48.764;9.172;2022-12-18T04:08:33;-5.40;99.90
758;DHT22;363;48.764;9.172;2022-12-18T04:11:00;-5.40;99.90
758;DHT22;363;48.764;9.172;2022-12-18T04:13:35;-4.70;99.90
758;DHT22;363;48.764;9.172;2022-12-18T04:16:01;-5.20;99.90
758;DHT22;363;48.764;9.172;2022-12-18T04:18:27;-5.20;99.90
758;DHT22;363;48.764;9.172;2022-12-18T04:20:52;-5.90;99.90
758;DHT22;363;48.764;9.172;2022-12-18T04:23:18;-5.60;99.90
758;DHT22;363;48.764;9.172;2022-12-18T04:25:44;-5.90;99.90
758;DHT22;363;48.764;9.172;2022-12-18T04:28:10;-5.40;99.90
758;DHT22;363;48.764;9.172;2022-12-18T04:30:36;-5.60;99.90
758;DHT22;363;48.764;9.172;2022-12-18T04:33:01;-5.60;99.90
758;DHT22;363;48.764;9.172;2022-12-18T04:35:27;-5.90;99.90
758;DHT22;363;48.764;9.172;2022-12-18T04:37:52;-5.10;99.90
758;DHT22;363;48.764;9.172;2022-12-18T04:40:18;-5.70;99.90
758;DHT22;363;48.764;9.172;2022-12-18T04:42:43;-5.80;99.90
758;DHT22;363;48.764;9.172;2022-12-18T04:45:09;-5.90;99.90
758;DHT22;363;48.764;9.172;2022-12-18T04:47:35;-5.60;99.90
758;DHT22;363;48.764;9.172;2022-12-18T04:50:00;-5.50;99.90
758;DHT22;363;48.764;9.172;2022-12-18T04:52:26;-5.60;99.90
758;DHT22;363;48.764;9.172;2022-12-18T04:54:52;-5.60;99.90
758;DHT22;363;48.764;9.172;2022-12-18T04:57:18;-5.70;99.90
758;DHT22;363;48.764;9.172;2022-12-18T04:59:44;-5.10;99.90
758;DHT22;363;48.764;9.172;2022-12-18T05:02:10;-5.80;99.90
758;DHT22;363;48.764;9.172;2022-12-18T05:04:36;-5.60;99.90
758;DHT22;363;48.764;9.172;2022-12-18T05:07:01;-5.60;99.90
758;DHT22;363;48.764;9.172;2022-12-18T05:09:27;-5.90;99.90
758;DHT22;363;48.764;9.172;2022-12-18T05:11:53;-6.00;99.90
758;DHT22;363;48.764;9.172;2022-12-18T05:14:19;-5.60;99.90
758;DHT22;363;48.764;9.172;2022-12-18T05:16:44;-6.00;99.90
758;DHT22;363;48.764;9.172;2022-12-18T05:19:10;-6.00;99.90
758;DHT22;363;48.764;9.172;2022-12-18T05:21:35;-6.60;99.90
758;DHT22;363;48.764;9.172;2022-12-18T05:24:01;-6.10;99.90
758;DHT22;363;48.764;9.172;2022-12-18T05:26:27;-6.20;99.90
758;DHT22;363;48.764;9.172;2022-12-18T05:28:52;-6.10;99.90
758;DHT22;363;48.764;9.172;2022-12-18T05:31:18;-6.30;99.90
758;DHT22;363;48.764;9.172;2022-12-18T05:33:44;-6.10;99.90
758;DHT22;363;48.764;9.172;2022-12-18T05:36:10;-6.30;99.90
758;DHT22;363;48.764;9.172;2022-12-18T05:38:38;-6.30;99.90
758;DHT22;363;48.764;9.172;2022-12-18T05:41:05;-6.40;99.90
758;DHT22;363;48.764;9.172;2022-12-18T05:43:33;-6.30;99.90
758;DHT22;363;48.764;9.172;2022-12-18T05:46:03;-6.30;99.90
758;DHT22;363;48.764;9.172;2022-12-18T05:48:29;-6.80;99.90
758;DHT22;363;48.764;9.172;2022-12-18T05:50:54;-6.30;99.90
758;DHT22;363;48.764;9.172;2022-12-18T05:53:20;-6.90;99.90
758;DHT22;363;48.764;9.172;2022-12-18T05:55:46;-6.50;99.90
758;DHT22;363;48.764;9.172;2022-12-18T05:58:14;-6.50;99.90
758;DHT22;363;48.764;9.172;2022-12-18T06:00:41;-5.90;99.90
758;DHT22;363;48.764;9.172;2022-12-18T06:03:09;-5.90;99.90
758;DHT22;363;48.764;9.172;2022-12-18T06:05:39;-7.10;99.90
758;DHT22;363;48.764;9.172;2022-12-18T06:08:11;-6.70;99.90
758;DHT22;363;48.764;9.172;2022-12-18T06:10:42;-6.40;99.90
758;DHT22;363;48.764;9.172;2022-12-18T06:13:08;-6.60;99.90
758;DHT22;363;48.764;9.172;2022-12-18T06:15:36;-6.70;99.90
758;DHT22;363;48.764;9.172;2022-12-18T06:18:02;-6.80;99.90
758;DHT22;363;48.764;9.172;2022-12-18T06:20:31;-6.70;99.90
758;DHT22;363;48.764;9.172;2022-12-18T06:22:57;-6.50;99.90
758;DHT22;363;48.764;9.172;2022-12-18T06:25:22;-6.80;99.90
758;DHT22;363;48.764;9.172;2022-12-18T06:27:48;-6.70;99.90
758;DHT22;363;48.764;9.172;2022-12-18T06:30:15;-6.70;99.90
758;DHT22;363;48.764;9.172;2022-12-18T06:32:40;-6.60;99.90
758;DHT22;363;48.764;9.172;2022-12-18T06:35:06;-7.00;99.90
758;DHT22;363;48.764;9.172;2022-12-18T06:37:32;-6.80;99.90
758;DHT22;363;48.764;9.172;2022-12-18T06:39:57;-6.80;99.90
758;DHT22;363;48.764;9.172;2022-12-18T06:42:24;-7.00;99.90
758;DHT22;363;48.764;9.172;2022-12-18T06:44:50;-7.60;99.90
758;DHT22;363;48.764;9.172;2022-12-18T06:47:15;-7.00;99.90
758;DHT22;363;48.764;9.172;2022-12-18T06:49:41;-6.90;99.90
758;DHT22;363;48.764;9.172;2022-12-18T06:52:06;-6.90;99.90
758;DHT22;363;48.764;9.172;2022-12-18T06:54:32;-7.00;99.90
758;DHT22;363;48.764;9.172;2022-12-18T06:56:57;-7.10;99.90
758;DHT22;363;48.764;9.172;2022-12-18T06:59:23;-6.90;99.90
758;DHT22;363;48.764;9.172;2022-12-18T07:01:49;-7.00;99.90
758;DHT22;363;48.764;9.172;2022-12-18T07:04:14;-7.00;99.90
758;DHT22;363;48.764;9.172;2022-12-18T07:06:40;-6.40;99.90
758;DHT22;363;48.764;9.172;2022-12-18T07:09:05;-6.90;99.90
758;DHT22;363;48.764;9.172;2022-12-18T07:11:32;-7.00;99.90
758;DHT22;363;48.764;9.172;2022-12-18T07:13:58;-6.90;99.90
758;DHT22;363;48.764;9.172;2022-12-18T07:16:23;-7.50;99.90
758;DHT22;363;48.764;9.172;2022-12-18T07:18:50;-6.50;99.90
758;DHT22;363;48.764;9.172;2022-12-18T07:21:18;-7.40;99.90
758;DHT22;363;48.764;9.172;2022-12-18T07:23:44;-6.80;99.90
758;DHT22;363;48.764;9.172;2022-12-18T07:26:13;-6.90;99.90
758;DHT22;363;48.764;9.172;2022-12-18T07:28:40;-6.90;99.90
758;DHT22;363;48.764;9.172;2022-12-18T07:31:11;-7.40;99.90
758;DHT22;363;48.764;9.172;2022-12-18T07:33:37;-6.80;99.90
758;DHT22;363;48.764;9.172;2022-12-18T07:36:05;-6.90;99.90
758;DHT22;363;48.764;9.172;2022-12-18T07:38:32;-6.90;99.90
758;DHT22;363;48.764;9.172;2022-12-18T07:41:16;-6.80;99.90
758;DHT22;363;48.764;9.172;2022-12-18T07:43:41;-6.60;99.90
758;DHT22;363;48.764;9.172;2022-12-18T07:46:08;-6.70;99.90
758;DHT22;363;48.764;9.172;2022-12-18T07:48:34;-6.50;99.90
758;DHT22;363;48.764;9.172;2022-12-18T07:51:04;-6.80;99.90
758;DHT22;363;48.764;9.172;2022-12-18T07:53:30;-7.20;99.90
758;DHT22;363;48.764;9.172;2022-12-18T07:56:01;-6.90;99.90
758;DHT22;363;48.764;9.172;2022-12-18T07:58:28;-6.80;99.90
758;DHT22;363;48.764;9.172;2022-12-18T08:00:54;-6.80;99.90
758;DHT22;363;48.764;9.172;2022-12-18T08:03:20;-6.90;99.90
758;DHT22;363;48.764;9.172;2022-12-18T08:05:45;-7.00;99.90
758;DHT22;363;48.764;9.172;2022-12-18T08:08:11;-7.10;99.90
758;DHT22;363;48.764;9.172;2022-12-18T08:10:37;-6.70;99.90
758;DHT22;363;48.764;9.172;2022-12-18T08:13:03;-6.90;99.90
758;DHT22;363;48.764;9.172;2022-12-18T08:15:29;-6.50;99.90
758;DHT22;363;48.764;9.172;2022-12-18T08:17:57;-7.30;99.90
758;DHT22;363;48.764;9.172;2022-12-18T08:20:23;-6.60;99.90
758;DHT22;363;48.764;9.172;2022-12-18T08:22:48;-6.70;99.90
758;DHT22;363;48.764;9.172;2022-12-18T08:25:14;-6.30;99.90
758;DHT22;363;48.764;9.172;2022-12-18T08:27:40;-7.20;99.90
758;DHT22;363;48.764;9.172;2022-12-18T08:30:06;-6.50;99.90
758;DHT22;363;48.764;9.172;2022-12-18T08:32:32;-6.60;99.90
758;DHT22;363;48.764;9.172;2022-12-18T08:34:58;-6.60;99.90
758;DHT22;363;48.764;9.172;2022-12-18T08:37:24;-6.50;99.90
758;DHT22;363;48.764;9.172;2022-12-18T08:39:50;-6.40;99.90
758;DHT22;363;48.764;9.172;2022-12-18T08:42:15;-6.30;99.90
758;DHT22;363;48.764;9.172;2022-12-18T08:45:00;-6.30;99.90
758;DHT22;363;48.764;9.172;2022-12-18T08:47:25;-6.00;99.90
758;DHT22;363;48.764;9.172;2022-12-18T08:49:51;-5.50;99.90
758;DHT22;363;48.764;9.172;2022-12-18T08:52:17;-5.90;99.90
758;DHT22;363;48.764;9.172;2022-12-18T08:54:42;-5.60;99.90
758;DHT22;363;48.764;9.172;2022-12-18T08:57:08;-5.60;99.90
758;DHT22;363;48.764;9.172;2022-12-18T08:59:34;-5.60;99.90
758;DHT22;363;48.764;9.172;2022-12-18T09:01:59;-5.60;99.90
758;DHT22;363;48.764;9.172;2022-12-18T09:04:25;-4.90;99.90
758;DHT22;363;48.764;9.172;2022-12-18T09:06:50;-5.40;99.90
758;DHT22;363;48.764;9.172;2022-12-18T09:09:16;-5.20;99.90
758;DHT22;363;48.764;9.172;2022-12-18T09:11:42;-5.00;99.90
758;DHT22;363;48.764;9.172;2022-12-18T09:14:09;-5.10;99.90
758;DHT22;363;48.764;9.172;2022-12-18T09:16:34;-4.90;99.90
758;DHT22;363;48.764;9.172;2022-12-18T09:19:01;-4.90;99.90
758;DHT22;363;48.764;9.172;2022-12-18T09:21:32;-4.90;99.90
758;DHT22;363;48.764;9.172;2022-12-18T09:23:59;-4.70;99.90
758;DHT22;363;48.764;9.172;2022-12-18T09:26:25;-4.50;99.90
758;DHT22;363;48.764;9.172;2022-12-18T09:28:51;-3.60;99.90
758;DHT22;363;48.764;9.172;2022-12-18T09:31:19;-2.80;99.90
758;DHT22;363;48.764;9.172;2022-12-18T09:33:45;-2.20;99.90
758;DHT22;363;48.764;9.172;2022-12-18T09:36:13;-2.50;99.90
758;DHT22;363;48.764;9.172;2022-12-18T09:38:39;-2.10;99.90
758;DHT22;363;48.764;9.172;2022-12-18T09:43:52;-2.60;99.90
758;DHT22;363;48.764;9.172;2022-12-18T09:46:33;-2.80;99.90
758;DHT22;363;48.764;9.172;2022-12-18T09:49:02;-3.70;99.90
758;DHT22;363;48.764;9.172;2022-12-18T09:51:43;-3.70;99.90
758;DHT22;363;48.764;9.172;2022-12-18T09:54:18;-3.10;99.90
758;DHT22;363;48.764;9.172;2022-12-18T09:56:46;-3.20;99.90
758;DHT22;363;48.764;9.172;2022-12-18T09:59:29;-3.00;99.90
758;DHT22;363;48.764;9.172;2022-12-18T10:01:56;-3.00;99.90
758;DHT22;363;48.764;9.172;2022-12-18T10:04:23;-2.50;99.90
758;DHT22;363;48.764;9.172;2022-12-18T10:07:01;-2.20;99.90
758;DHT22;363;48.764;9.172;2022-12-18T10:09:43;-1.70;99.90
758;DHT22;363;48.764;9.172;2022-12-18T10:17:45;0.10;99.60
758;DHT22;363;48.764;9.172;2022-12-18T10:20:29;-0.40;98.30
758;DHT22;363;48.764;9.172;2022-12-18T10:28:26;0.50;98.00
758;DHT22;363;48.764;9.172;2022-12-18T10:30:54;0.60;96.70
758;DHT22;363;48.764;9.172;2022-12-18T10:33:23;1.80;95.80
758;DHT22;363;48.764;9.172;2022-12-18T10:35:53;2.10;94.60
758;DHT22;363;48.764;9.172;2022-12-18T10:40:49;2.60;93.10
758;DHT22;363;48.764;9.172;2022-12-18T10:43:16;1.90;92.80
758;DHT22;363;48.764;9.172;2022-12-18T10:51:30;1.60;93.30
758;DHT22;363;48.764;9.172;2022-12-18T10:56:34;2.20;92.90
758;DHT22;363;48.764;9.172;2022-12-18T10:59:08;1.70;93.50
758;DHT22;363;48.764;9.172;2022-12-18T11:01:57;1.50;94.30
758;DHT22;363;48.764;9.172;2022-12-18T11:04:26;1.50;94.50
758;DHT22;363;48.764;9.172;2022-12-18T11:07:02;1.50;95.00
758;DHT22;363;48.764;9.172;2022-12-18T11:09:36;1.50;95.20
758;DHT22;363;48.764;9.172;2022-12-18T11:12:06;1.60;95.00
758;DHT22;363;48.764;9.172;2022-12-18T11:14:47;1.60;94.70
758;DHT22;363;48.764;9.172;2022-12-18T11:17:22;1.50;95.10
758;DHT22;363;48.764;9.172;2022-12-18T11:19:58;1.60;95.40
758;DHT22;363;48.764;9.172;2022-12-18T11:22:26;1.50;95.60
758;DHT22;363;48.764;9.172;2022-12-18T11:28:24;1.20;95.50
758;DHT22;363;48.764;9.172;2022-12-18T11:30:36;1.40;96.30
758;DHT22;363;48.764;9.172;2022-12-18T11:33:19;2.00;95.60
758;DHT22;363;48.764;9.172;2022-12-18T11:35:58;2.30;95.10
758;DHT22;363;48.764;9.172;2022-12-18T11:38:34;2.30;94.80
758;DHT22;363;48.764;9.172;2022-12-18T11:41:28;2.00;95.00
758;DHT22;363;48.764;9.172;2022-12-18T11:44:35;1.30;96.10
758;DHT22;363;48.764;9.172;2022-12-18T11:49:49;1.40;96.50
758;DHT22;363;48.764;9.172;2022-12-18T11:52:34;1.50;96.60
758;DHT22;363;48.764;9.172;2022-12-18T11:55:10;1.50;96.30
758;DHT22;363;48.764;9.172;2022-12-18T12:00:20;1.90;95.50
758;DHT22;363;48.764;9.172;2022-12-18T12:06:07;2.30;95.30
758;DHT22;363;48.764;9.172;2022-12-18T12:29:31;1.60;96.50
758;DHT22;363;48.764;9.172;2022-12-18T12:32:07;1.40;96.40
758;DHT22;363;48.764;9.172;2022-12-18T12:35:09;1.20;96.50
758;DHT22;363;48.764;9.172;2022-12-18T12:40:28;1.00;97.30
758;DHT22;363;48.764;9.172;2022-12-18T12:42:59;0.70;97.00
758;DHT22;363;48.764;9.172;2022-12-18T12:45:57;0.90;97.60
758;DHT22;363;48.764;9.172;2022-12-18T12:51:14;1.00;98.00
758;DHT22;363;48.764;9.172;2022-12-18T12:53:41;0.50;97.40
758;DHT22;363;48.764;9.172;2022-12-18T12:56:09;0.80;97.80
758;DHT22;363;48.764;9.172;2022-12-18T13:04:42;0.50;97.80
758;DHT22;363;48.764;9.172;2022-12-18T13:07:16;0.40;98.10
758;DHT22;363;48.764;9.172;2022-12-18T13:13:11;0.30;98.40
758;DHT22;363;48.764;9.172;2022-12-18T13:15:46;0.30;99.00
758;DHT22;363;48.764;9.172;2022-12-18T13:18:18;0.20;99.20
758;DHT22;363;48.764;9.172;2022-12-18T13:28:23;0.10;99.90
758;DHT22;363;48.764;9.172;2022-12-18T13:30:56;0.20;99.90
758;DHT22;363;48.764;9.172;2022-12-18T13:46:17;0.40;99.90
758;DHT22;363;48.764;9.172;2022-12-18T13:51:23;0.50;99.90
758;DHT22;363;48.764;9.172;2022-12-18T13:54:19;0.50;99.90
758;DHT22;363;48.764;9.172;2022-12-18T13:56:48;0.70;99.90
758;DHT22;363;48.764;9.172;2022-12-18T13:59:23;0.80;99.90
758;DHT22;363;48.764;9.172;2022-12-18T14:01:58;0.40;99.90
758;DHT22;363;48.764;9.172;2022-12-18T14:07:35;0.10;99.90
758;DHT22;363;48.764;9.172;2022-12-18T14:09:53;0.80;99.90
758;DHT22;363;48.764;9.172;2022-12-18T14:12:31;0.10;99.90
758;DHT22;363;48.764;9.172;2022-12-18T14:17:53;0.00;99.90
758;DHT22;363;48.764;9.172;2022-12-18T14:20:19;0.60;99.90
758;DHT22;363;48.764;9.172;2022-12-18T14:22:47;0.80;99.90
758;DHT22;363;48.764;9.172;2022-12-18T14:25:30;0.80;99.90
758;DHT22;363;48.764;9.172;2022-12-18T14:28:04;0.70;99.90
758;DHT22;363;48.764;9.172;2022-12-18T14:30:39;1.20;99.90
758;DHT22;363;48.764;9.172;2022-12-18T14:35:39;0.40;99.90
758;DHT22;363;48.764;9.172;2022-12-18T14:38:35;0.80;99.90
758;DHT22;363;48.764;9.172;2022-12-18T14:41:05;0.60;99.90
758;DHT22;363;48.764;9.172;2022-12-18T14:43:36;0.60;99.90
758;DHT22;363;48.764;9.172;2022-12-18T14:46:04;0.30;99.90
758;DHT22;363;48.764;9.172;2022-12-18T14:48:42;0.10;99.90
758;DHT22;363;48.764;9.172;2022-12-18T14:51:19;0.50;99.90
758;DHT22;363;48.764;9.172;2022-12-18T14:53:47;-0.20;99.90
758;DHT22;363;48.764;9.172;2022-12-18T14:56:19;0.40;99.90
758;DHT22;363;48.764;9.172;2022-12-18T14:58:54;0.30;99.90
758;DHT22;363;48.764;9.172;2022-12-18T15:01:29;0.00;99.90
758;DHT22;363;48.764;9.172;2022-12-18T15:03:57;0.00;99.90
758;DHT22;363;48.764;9.172;2022-12-18T15:06:27;-0.10;99.90
758;DHT22;363;48.764;9.172;2022-12-18T15:08:54;0.10;99.90
758;DHT22;363;48.764;9.172;2022-12-18T15:13:53;-0.20;99.90
758;DHT22;363;48.764;9.172;2022-12-18T15:16:19;-0.10;99.90
758;DHT22;363;48.764;9.172;2022-12-18T15:18:45;0.00;99.90
758;DHT22;363;48.764;9.172;2022-12-18T15:21:17;-0.10;99.90
758;DHT22;363;48.764;9.172;2022-12-18T15:26:10;-0.30;99.90
758;DHT22;363;48.764;9.172;2022-12-18T15:28:43;-0.50;99.90
758;DHT22;363;48.764;9.172;2022-12-18T15:34:23;-0.50;99.90
758;DHT22;363;48.764;9.172;2022-12-18T15:36:25;-0.70;99.90
758;DHT22;363;48.764;9.172;2022-12-18T15:38:51;-0.20;99.90
758;DHT22;363;48.764;9.172;2022-12-18T15:41:19;-0.30;99.90
758;DHT22;363;48.764;9.172;2022-12-18T15:43:48;-0.40;99.90
758;DHT22;363;48.764;9.172;2022-12-18T15:46:18;-0.70;99.90
758;DHT22;363;48.764;9.172;2022-12-18T15:48:46;-0.50;99.90
758;DHT22;363;48.764;9.172;2022-12-18T15:51:26;-0.80;99.90
758;DHT22;363;48.764;9.172;2022-12-18T15:53:56;-1.00;99.90
758;DHT22;363;48.764;9.172;2022-12-18T15:56:22;-0.80;99.90
758;DHT22;363;48.764;9.172;2022-12-18T15:59:33;-0.90;99.90
758;DHT22;363;48.764;9.172;2022-12-18T16:01:58;-1.00;99.90
758;DHT22;363;48.764;9.172;2022-12-18T16:04:24;-0.80;99.90
758;DHT22;363;48.764;9.172;2022-12-18T16:06:50;-0.80;99.90
758;DHT22;363;48.764;9.172;2022-12-18T16:09:17;-0.70;99.90
758;DHT22;363;48.764;9.172;2022-12-18T16:11:43;-0.50;99.90
758;DHT22;363;48.764;9.172;2022-12-18T16:14:23;-0.60;99.90
758;DHT22;363;48.764;9.172;2022-12-18T16:17:00;-0.80;99.90
758;DHT22;363;48.764;9.172;2022-12-18T16:19:27;-1.00;99.90
758;DHT22;363;48.764;9.172;2022-12-18T16:21:54;-1.00;99.90
758;DHT22;363;48.764;9.172;2022-12-18T16:24:31;-1.00;99.90
758;DHT22;363;48.764;9.172;2022-12-18T16:26:58;-1.30;99.90
758;DHT22;363;48.764;9.172;2022-12-18T16:29:25;-1.30;99.90
758;DHT22;363;48.764;9.172;2022-12-18T16:31:53;-1.90;99.90
758;DHT22;363;48.764;9.172;2022-12-18T16:34:24;-2.10;99.90
758;DHT22;363;48.764;9.172;2022-12-18T16:37:04;-1.40;99.90
758;DHT22;363;48.764;9.172;2022-12-18T16:39:30;-1.40;99.90
758;DHT22;363;48.764;9.172;2022-12-18T16:41:56;-1.40;99.90
758;DHT22;363;48.764;9.172;2022-12-18T16:44:22;-1.40;99.90
758;DHT22;363;48.764;9.172;2022-12-18T16:46:47;-1.20;99.90
758;DHT22;363;48.764;9.172;2022-12-18T16:49:17;-1.20;99.90
758;DHT22;363;48.764;9.172;2022-12-18T16:51:43;-1.10;99.90
758;DHT22;363;48.764;9.172;2022-12-18T16:54:10;-0.70;99.90
758;DHT22;363;48.764;9.172;2022-12-18T16:56:36;-0.90;99.90
758;DHT22;363;48.764;9.172;2022-12-18T16:59:03;-1.20;99.90
758;DHT22;363;48.764;9.172;2022-12-18T17:01:31;-1.20;99.90
758;DHT22;363;48.764;9.172;2022-12-18T17:04:02;-1.80;99.90
758;DHT22;363;48.764;9.172;2022-12-18T17:06:30;-0.80;99.90
758;DHT22;363;48.764;9.172;2022-12-18T17:09:02;-1.20;99.90
758;DHT22;363;48.764;9.172;2022-12-18T17:11:29;-1.40;99.90
758;DHT22;363;48.764;9.172;2022-12-18T17:13:55;-1.40;99.90
758;DHT22;363;48.764;9.172;2022-12-18T17:16:21;-1.50;99.90
758;DHT22;363;48.764;9.172;2022-12-18T17:18:48;-1.10;99.90
758;DHT22;363;48.764;9.172;2022-12-18T17:21:13;-1.30;99.90
758;DHT22;363;48.764;9.172;2022-12-18T17:23:43;-1.60;99.90
758;DHT22;363;48.764;9.172;2022-12-18T17:26:10;-1.60;99.90
758;DHT22;363;48.764;9.172;2022-12-18T17:28:37;-1.00;99.90
758;DHT22;363;48.764;9.172;2022-12-18T17:31:14;-1.10;99.90
758;DHT22;363;48.764;9.172;2022-12-18T17:33:41;-0.70;99.90
758;DHT22;363;48.764;9.172;2022-12-18T17:36:07;-0.80;99.90
758;DHT22;363;48.764;9.172;2022-12-18T17:38:33;-0.80;99.90
758;DHT22;363;48.764;9.172;2022-12-18T17:41:03;-0.80;99.90
758;DHT22;363;48.764;9.172;2022-12-18T17:43:29;-0.60;99.90
758;DHT22;363;48.764;9.172;2022-12-18T17:45:55;-0.70;99.90
758;DHT22;363;48.764;9.172;2022-12-18T17:48:21;-1.40;99.90
758;DHT22;363;48.764;9.172;2022-12-18T17:50:47;-0.10;99.90
758;DHT22;363;48.764;9.172;2022-12-18T17:53:12;-0.80;99.90
758;DHT22;363;48.764;9.172;2022-12-18T17:55:38;-0.20;99.90
758;DHT22;363;48.764;9.172;2022-12-18T17:58:04;-1.10;99.90
758;DHT22;363;48.764;9.172;2022-12-18T18:00:29;-0.20;99.90
758;DHT22;363;48.764;9.172;2022-12-18T18:02:55;-0.70;99.90
758;DHT22;363;48.764;9.172;2022-12-18T18:05:21;-1.20;99.90
758;DHT22;363;48.764;9.172;2022-12-18T18:07:48;-1.00;99.90
758;DHT22;363;48.764;9.172;2022-12-18T18:10:13;-0.40;99.90
758;DHT22;363;48.764;9.172;2022-12-18T18:12:39;-1.20;99.90
758;DHT22;363;48.764;9.172;2022-12-18T18:15:23;-0.10;99.90
758;DHT22;363;48.764;9.172;2022-12-18T18:17:49;-0.90;99.90
758;DHT22;363;48.764;9.172;2022-12-18T18:20:14;-0.60;99.90
758;DHT22;363;48.764;9.172;2022-12-18T18:22:41;-0.70;99.90
758;DHT22;363;48.764;9.172;2022-12-18T18:25:07;-0.60;99.90
758;DHT22;363;48.764;9.172;2022-12-18T18:27:32;-0.40;99.90
758;DHT22;363;48.764;9.172;2022-12-18T18:29:58;-0.70;99.90
758;DHT22;363;48.764;9.172;2022-12-18T18:32:24;-1.30;99.90
758;DHT22;363;48.764;9.172;2022-12-18T18:34:49;-1.10;99.90
758;DHT22;363;48.764;9.172;2022-12-18T18:37:15;-1.20;99.90
758;DHT22;363;48.764;9.172;2022-12-18T18:39:40;-0.50;99.90
758;DHT22;363;48.764;9.172;2022-12-18T18:42:06;-0.60;99.90
758;DHT22;363;48.764;9.172;2022-12-18T18:44:32;-0.50;99.90
758;DHT22;363;48.764;9.172;2022-12-18T18:46:58;-0.50;99.90
758;DHT22;363;48.764;9.172;2022-12-18T18:49:24;-0.50;99.90
758;DHT22;363;48.764;9.172;2022-12-18T18:51:52;-0.20;99.90
758;DHT22;363;48.764;9.172;2022-12-18T18:54:18;-0.40;99.90